Accueil
METAR-TAF:

METAR-TAF

Aéroports :

Pikeville, Kentucky, États-Unis

latitude: 37-33-42N, longitude: 082-33-59W, altitude: 449 m

Observation

Le bulletin a été fait il y a 10 minutes, à 22:35 UTC
Vent 6 kt de ouest/sud-ouest
Température 3°C
Humidité 56%
Pression 1015 hPa
Visibilité: 16.1 km
Nuages épars à une hauteur de 4300 ft
Nuages fragmentés à une hauteur de 6000 ft
Ciel couvert à une hauteur de 11000 ft

METAR: KPBX 282235Z AUTO 25006KT 10SM SCT043 BKN060 OVC110 03/M05 A2996 RMK AO2 T00271054

Heure: 17:45 (22:45 UTC)


TAF: absent

Observations et prévisions météorologiques de plus de 4000 aéroports (messages METAR et TAF).

Les stations disponibles sont représentées par des disques jaunes et rouges sur la carte.

Passer la souris dessus pour voir le nom de la station.

Cliquer dessus pour voir les observations et prévisions météorologiques.

Pour changer de carte: cliquez sur les boutons verts avec une croix noire pour zoomer, sur le bouton vert avec un tiret pour effectuer un zoom arrière, ou sur les flèches vertes pour les cartes adjacentes.


METAR-TAF: